createdAt,value
2023-01-17T00:01:45.309Z,1.25
2023-01-17T00:04:31.741Z,0.90
2023-01-17T00:07:21.927Z,0.90
2023-01-17T00:09:56.871Z,0.93
2023-01-17T00:12:25.028Z,6.70
2023-01-17T00:14:53.124Z,13.73
2023-01-17T00:17:20.422Z,10.57
2023-01-17T00:20:06.199Z,4.45
2023-01-17T00:22:52.495Z,3.55
2023-01-17T00:25:46.244Z,3.25
2023-01-17T00:28:13.550Z,2.80
2023-01-17T00:30:40.729Z,4.15
2023-01-17T00:33:07.817Z,2.40
2023-01-17T00:35:35.281Z,2.15
2023-01-17T00:38:07.538Z,3.35
2023-01-17T00:40:35.358Z,1.80
2023-01-17T00:43:21.515Z,1.88
2023-01-17T00:46:07.574Z,2.53
2023-01-17T00:48:53.867Z,2.97
2023-01-17T00:51:40.231Z,1.80
2023-01-17T00:54:26.143Z,2.55
2023-01-17T00:57:12.101Z,2.28
2023-01-17T00:59:58.229Z,2.72
2023-01-17T01:02:45.000Z,2.92
2023-01-17T01:05:31.597Z,2.55
2023-01-17T01:08:17.531Z,3.28
2023-01-17T01:11:03.861Z,3.60
2023-01-17T01:13:50.192Z,4.50
2023-01-17T01:16:36.371Z,3.05
2023-01-17T01:19:23.374Z,1.80
2023-01-17T01:22:09.713Z,3.30
2023-01-17T01:24:55.501Z,2.75
2023-01-17T01:27:41.533Z,2.92
2023-01-17T01:30:27.917Z,9.45
2023-01-17T01:33:13.591Z,12.75
2023-01-17T01:35:41.971Z,10.13
2023-01-17T01:38:09.407Z,4.78
2023-01-17T01:40:42.264Z,8.38
2023-01-17T01:43:09.819Z,3.78
2023-01-17T01:45:36.973Z,5.15
2023-01-17T01:48:22.929Z,7.03
2023-01-17T01:50:53.273Z,8.55
2023-01-17T01:53:21.048Z,4.80
2023-01-17T01:55:50.200Z,11.80
2023-01-17T01:58:21.002Z,3.15
2023-01-17T02:00:48.310Z,2.42
2023-01-17T02:03:17.685Z,6.45
2023-01-17T02:05:45.209Z,2.60
2023-01-17T02:08:14.214Z,5.90
2023-01-17T02:10:42.504Z,2.55
2023-01-17T02:13:10.443Z,1.50
2023-01-17T02:15:42.310Z,1.48
2023-01-17T02:18:21.808Z,1.50
2023-01-17T02:20:48.948Z,1.55
2023-01-17T02:23:35.035Z,1.92
2023-01-17T02:26:18.448Z,2.17
2023-01-17T02:28:57.818Z,1.88
2023-01-17T02:31:34.606Z,1.38
2023-01-17T02:34:11.201Z,1.40
2023-01-17T02:36:49.324Z,1.50
2023-01-17T02:39:19.016Z,1.30
2023-01-17T02:41:52.779Z,1.60
2023-01-17T02:44:20.814Z,2.10
2023-01-17T02:46:49.187Z,2.58
2023-01-17T02:49:17.206Z,1.77
2023-01-17T02:52:00.273Z,1.58
2023-01-17T02:54:30.140Z,1.50
2023-01-17T02:57:12.523Z,1.50
2023-01-17T02:59:45.471Z,1.17
2023-01-17T03:02:18.586Z,1.40
2023-01-17T03:04:56.374Z,1.55
2023-01-17T03:07:25.214Z,1.60
2023-01-17T03:09:57.528Z,1.42
2023-01-17T03:12:27.081Z,1.65
2023-01-17T03:14:54.209Z,2.40
2023-01-17T03:17:21.808Z,1.80
2023-01-17T03:19:48.924Z,1.60
2023-01-17T03:22:16.086Z,1.85
2023-01-17T03:24:43.244Z,2.20
2023-01-17T03:27:10.392Z,1.92
2023-01-17T03:29:37.525Z,1.88
2023-01-17T03:32:04.727Z,1.90
2023-01-17T03:34:31.865Z,2.00
2023-01-17T03:36:59.013Z,1.80
2023-01-17T03:39:26.340Z,1.75
2023-01-17T03:41:53.524Z,1.83
2023-01-17T03:44:20.660Z,2.05
2023-01-17T03:46:47.821Z,1.65
2023-01-17T03:49:16.607Z,1.60
2023-01-17T03:51:43.732Z,1.67
2023-01-17T03:54:10.931Z,1.90
2023-01-17T03:56:38.057Z,2.00
2023-01-17T03:59:05.249Z,1.70
2023-01-17T04:01:32.597Z,1.60
2023-01-17T04:03:59.882Z,1.63
2023-01-17T04:06:28.459Z,1.88
2023-01-17T04:08:55.578Z,3.60
2023-01-17T04:11:22.668Z,1.90
2023-01-17T04:13:49.776Z,1.80
2023-01-17T04:16:17.908Z,1.75
2023-01-17T04:18:45.228Z,1.90
2023-01-17T04:21:12.443Z,1.67
2023-01-17T04:23:39.648Z,1.65
2023-01-17T04:26:06.912Z,2.08
2023-01-17T04:28:34.103Z,1.60
2023-01-17T04:31:01.625Z,1.50
2023-01-17T04:33:29.800Z,1.50
2023-01-17T04:35:57.233Z,1.50
2023-01-17T04:38:24.676Z,1.67
2023-01-17T04:40:52.235Z,1.27
2023-01-17T04:43:19.336Z,0.90
2023-01-17T04:45:46.560Z,1.88
2023-01-17T04:48:13.696Z,1.90
2023-01-17T04:50:40.879Z,1.90
2023-01-17T04:53:08.060Z,2.85
2023-01-17T04:55:35.278Z,11.57
2023-01-17T04:58:02.409Z,4.60
2023-01-17T05:00:30.145Z,11.57
2023-01-17T05:02:57.375Z,8.55
2023-01-17T05:05:24.657Z,2.97
2023-01-17T05:07:55.687Z,4.95
2023-01-17T05:10:22.841Z,3.80
2023-01-17T05:12:57.070Z,3.80
2023-01-17T05:15:24.761Z,6.05
2023-01-17T05:17:52.455Z,3.50
2023-01-17T05:20:20.292Z,3.42
2023-01-17T05:22:55.407Z,6.82
2023-01-17T05:25:26.231Z,2.80
2023-01-17T05:27:53.507Z,2.08
2023-01-17T05:30:21.245Z,2.80
2023-01-17T05:32:52.246Z,5.50
2023-01-17T05:35:20.257Z,7.80
2023-01-17T05:37:49.217Z,4.70
2023-01-17T05:40:17.278Z,3.45
2023-01-17T05:42:51.286Z,3.97
2023-01-17T05:45:19.808Z,12.50
2023-01-17T05:47:48.000Z,2.38
2023-01-17T05:50:16.846Z,5.75
2023-01-17T05:52:49.590Z,10.68
2023-01-17T05:55:16.749Z,12.98
2023-01-17T05:57:43.909Z,6.53
2023-01-17T06:00:11.425Z,6.65
2023-01-17T06:02:38.574Z,4.93
2023-01-17T06:05:05.945Z,5.97
2023-01-17T06:07:33.821Z,2.70
2023-01-17T06:10:01.232Z,3.17
2023-01-17T06:12:28.424Z,6.75
2023-01-17T06:14:55.556Z,6.25
2023-01-17T06:17:22.731Z,6.20
2023-01-17T06:19:49.865Z,4.75
2023-01-17T06:22:16.988Z,6.43
2023-01-17T06:24:44.165Z,3.30
2023-01-17T06:27:11.440Z,3.58
2023-01-17T06:29:38.637Z,3.78
2023-01-17T06:32:05.788Z,2.90
2023-01-17T06:34:33.014Z,2.90
2023-01-17T06:37:00.215Z,3.33
2023-01-17T06:39:27.448Z,2.85
2023-01-17T06:41:54.919Z,3.35
2023-01-17T06:44:22.166Z,4.43
2023-01-17T06:46:49.315Z,5.93
2023-01-17T06:49:16.491Z,6.07
2023-01-17T06:51:43.833Z,4.82
2023-01-17T06:54:11.329Z,4.18
2023-01-17T06:56:38.475Z,5.95
2023-01-17T06:59:05.743Z,6.43
2023-01-17T07:01:33.041Z,5.93
2023-01-17T07:04:00.264Z,7.00
2023-01-17T07:06:28.813Z,6.43
2023-01-17T07:08:56.652Z,6.55
2023-01-17T07:11:23.916Z,10.55
2023-01-17T07:13:51.225Z,17.13
2023-01-17T07:16:18.425Z,8.63
2023-01-17T07:18:45.539Z,7.82
2023-01-17T07:21:14.275Z,7.35
2023-01-17T07:23:41.511Z,7.05
2023-01-17T07:26:09.502Z,6.57
2023-01-17T07:28:37.051Z,9.95
2023-01-17T07:31:08.161Z,8.50
2023-01-17T07:33:35.898Z,8.90
2023-01-17T07:36:07.541Z,9.13
2023-01-17T07:38:34.928Z,8.10
2023-01-17T07:41:02.282Z,9.55
2023-01-17T07:43:29.452Z,7.03
2023-01-17T07:45:56.634Z,7.70
2023-01-17T07:48:24.860Z,9.75
2023-01-17T07:50:56.017Z,8.50
2023-01-17T07:53:27.308Z,9.68
2023-01-17T07:55:54.720Z,11.00
2023-01-17T07:58:22.450Z,11.13
2023-01-17T08:00:49.644Z,10.00
2023-01-17T08:03:17.585Z,9.80
2023-01-17T08:05:53.034Z,10.82
2023-01-17T08:08:20.227Z,14.20
2023-01-17T08:10:47.515Z,11.18
2023-01-17T08:13:14.870Z,9.23
2023-01-17T08:15:42.145Z,6.35
2023-01-17T08:18:09.309Z,5.88
2023-01-17T08:20:36.473Z,9.25
2023-01-17T08:23:03.653Z,8.05
2023-01-17T08:25:33.011Z,13.52
2023-01-17T08:28:00.221Z,8.10
2023-01-17T08:30:27.875Z,8.50
2023-01-17T08:32:55.388Z,8.82
2023-01-17T08:35:22.948Z,6.80
2023-01-17T08:37:53.892Z,8.15
2023-01-17T08:40:21.634Z,11.85
2023-01-17T08:42:55.429Z,9.82
2023-01-17T08:45:22.531Z,10.60
2023-01-17T08:47:49.698Z,6.18
2023-01-17T08:50:20.610Z,6.20
2023-01-17T08:52:48.740Z,5.40
2023-01-17T08:55:16.215Z,4.50
2023-01-17T08:57:43.457Z,5.50
2023-01-17T09:00:10.918Z,5.28
2023-01-17T09:02:38.050Z,5.97
2023-01-17T09:05:05.348Z,7.85
2023-01-17T09:07:32.613Z,11.50
2023-01-17T09:09:59.718Z,9.88
2023-01-17T09:12:26.955Z,10.25
2023-01-17T09:14:54.207Z,8.90
2023-01-17T09:17:21.321Z,8.38
2023-01-17T09:19:48.850Z,8.40
2023-01-17T09:22:16.271Z,9.98
2023-01-17T09:24:43.482Z,8.57
2023-01-17T09:27:10.736Z,8.95
2023-01-17T09:29:37.845Z,6.15
2023-01-17T09:32:05.115Z,5.80
2023-01-17T09:34:32.201Z,5.07
2023-01-17T09:36:59.416Z,4.45
2023-01-17T09:39:26.948Z,4.68
2023-01-17T09:42:19.111Z,3.53
2023-01-17T09:44:53.360Z,8.93
2023-01-17T09:47:26.357Z,3.17
2023-01-17T09:49:53.532Z,2.63
2023-01-17T09:52:23.327Z,2.33
2023-01-17T09:54:50.819Z,2.50
2023-01-17T09:57:25.537Z,1.77
2023-01-17T10:00:03.222Z,2.22
2023-01-17T10:02:49.657Z,1.98
2023-01-17T10:05:19.771Z,1.98
2023-01-17T10:08:05.505Z,2.00
2023-01-17T10:10:43.714Z,1.83
2023-01-17T10:13:10.862Z,1.85
2023-01-17T10:15:54.408Z,1.75
2023-01-17T10:18:33.545Z,2.08
2023-01-17T10:21:11.780Z,2.10
2023-01-17T10:23:39.014Z,2.10
2023-01-17T10:26:08.089Z,1.95
2023-01-17T10:28:39.013Z,2.88
2023-01-17T10:31:06.242Z,1.75
2023-01-17T10:33:44.033Z,2.33
2023-01-17T10:36:21.979Z,2.00
2023-01-17T10:38:51.951Z,2.42
2023-01-17T10:41:27.046Z,2.10
2023-01-17T10:43:57.194Z,2.00
2023-01-17T10:46:28.599Z,2.00
2023-01-17T10:48:55.906Z,2.08
2023-01-17T10:51:32.100Z,3.70
2023-01-17T10:54:04.922Z,6.13
2023-01-17T10:56:34.468Z,2.40
2023-01-17T10:59:20.557Z,2.03
2023-01-17T11:01:49.728Z,2.00
2023-01-17T11:04:22.734Z,2.35
2023-01-17T11:07:08.452Z,2.15
2023-01-17T11:09:40.510Z,2.10
2023-01-17T11:12:16.538Z,1.67
2023-01-17T11:14:50.044Z,1.63
2023-01-17T11:17:20.158Z,1.80
2023-01-17T11:19:51.241Z,1.17
2023-01-17T11:22:18.843Z,1.30
2023-01-17T11:24:50.298Z,1.52
2023-01-17T11:27:25.101Z,1.30
2023-01-17T11:30:09.247Z,1.40
2023-01-17T11:32:36.464Z,1.50
2023-01-17T11:35:07.008Z,1.60
2023-01-17T11:37:35.156Z,1.50
2023-01-17T11:40:09.270Z,1.98
2023-01-17T11:42:37.637Z,1.15
2023-01-17T11:45:23.393Z,1.42
2023-01-17T11:47:50.613Z,1.70
2023-01-17T11:50:25.016Z,2.33
2023-01-17T11:52:52.319Z,1.50
2023-01-17T11:55:22.920Z,1.10
2023-01-17T11:57:50.617Z,1.63
2023-01-17T12:00:24.844Z,1.80
2023-01-17T12:03:05.724Z,0.80
2023-01-17T12:05:58.087Z,1.10
2023-01-17T12:08:25.326Z,1.10
2023-01-17T12:11:03.931Z,1.10
2023-01-17T12:14:02.058Z,1.30
2023-01-17T12:16:32.194Z,1.23
2023-01-17T12:18:59.329Z,0.90
2023-01-17T12:21:29.788Z,1.25
2023-01-17T12:24:32.569Z,1.70
2023-01-17T12:27:18.176Z,1.33
2023-01-17T12:29:52.418Z,1.02
2023-01-17T12:32:35.033Z,1.20
2023-01-17T12:35:21.232Z,1.33
2023-01-17T12:38:03.791Z,1.50
2023-01-17T12:40:35.707Z,1.60
2023-01-17T12:43:06.950Z,1.33
2023-01-17T12:45:36.948Z,1.63
2023-01-17T12:48:10.982Z,1.23
2023-01-17T12:50:42.165Z,1.25
2023-01-17T12:53:20.105Z,1.40
2023-01-17T12:56:19.600Z,1.58
2023-01-17T12:58:49.546Z,1.52
2023-01-17T13:01:16.797Z,1.30
2023-01-17T13:03:56.100Z,1.05
2023-01-17T13:06:48.013Z,1.30
2023-01-17T13:09:17.954Z,2.38
2023-01-17T13:11:49.761Z,1.25
2023-01-17T13:14:17.283Z,1.60
2023-01-17T13:16:50.338Z,1.90
2023-01-17T13:19:26.760Z,1.95
2023-01-17T13:21:54.563Z,1.65
2023-01-17T13:24:23.268Z,1.55
2023-01-17T13:26:56.617Z,1.35
2023-01-17T13:29:38.936Z,2.10
2023-01-17T13:32:15.259Z,2.13
2023-01-17T13:34:51.390Z,2.50
2023-01-17T13:37:27.371Z,2.40
2023-01-17T13:40:13.139Z,2.35
2023-01-17T13:42:55.136Z,2.10
2023-01-17T13:45:24.693Z,2.67
2023-01-17T13:47:52.868Z,2.28
2023-01-17T13:50:38.123Z,2.20
2023-01-17T13:53:24.254Z,2.47
2023-01-17T13:55:53.414Z,2.30
2023-01-17T13:58:28.420Z,2.65
2023-01-17T14:00:56.100Z,2.42
2023-01-17T14:03:55.809Z,2.55
2023-01-17T14:06:44.738Z,3.28
2023-01-17T14:09:16.415Z,2.33
2023-01-17T14:12:01.785Z,3.20
2023-01-17T14:14:41.672Z,2.97
2023-01-17T14:17:25.645Z,3.15
2023-01-17T14:20:01.015Z,3.50
2023-01-17T14:22:29.828Z,3.05
2023-01-17T14:24:56.965Z,2.88
2023-01-17T14:27:25.331Z,2.55
2023-01-17T14:29:59.445Z,4.38
2023-01-17T14:32:34.240Z,3.58
2023-01-17T14:35:01.790Z,3.20
2023-01-17T14:37:29.415Z,3.60
2023-01-17T14:39:56.783Z,4.40
2023-01-17T14:42:25.560Z,3.75
2023-01-17T14:45:03.949Z,5.15
2023-01-17T14:47:32.108Z,4.30
2023-01-17T14:50:14.275Z,3.40
2023-01-17T14:52:41.495Z,3.92
2023-01-17T14:55:16.059Z,3.65
2023-01-17T14:57:43.319Z,3.55
2023-01-17T15:00:11.185Z,3.72
2023-01-17T15:02:44.924Z,3.58
2023-01-17T15:05:14.233Z,3.10
2023-01-17T15:07:42.197Z,3.47
2023-01-17T15:10:13.912Z,4.35
2023-01-17T15:12:46.459Z,3.00
2023-01-17T15:17:40.773Z,4.40
2023-01-17T15:20:09.827Z,4.32
2023-01-17T15:22:37.016Z,4.10
2023-01-17T15:25:04.750Z,4.40
2023-01-17T15:27:32.251Z,3.92
2023-01-17T15:30:02.213Z,4.07
2023-01-17T15:32:32.201Z,5.18
2023-01-17T15:35:02.507Z,9.52
2023-01-17T15:37:34.077Z,8.00
2023-01-17T15:40:08.722Z,4.38
2023-01-17T15:42:37.509Z,3.40
2023-01-17T15:45:06.668Z,4.00
2023-01-17T15:47:35.489Z,4.50
2023-01-17T15:50:03.855Z,5.53
2023-01-17T15:52:31.161Z,3.95
2023-01-17T15:55:00.358Z,3.50
2023-01-17T15:57:27.469Z,3.50
2023-01-17T15:59:55.846Z,4.32
2023-01-17T16:02:24.762Z,4.20
2023-01-17T16:04:52.059Z,4.18
2023-01-17T16:07:20.452Z,5.20
2023-01-17T16:09:47.990Z,5.13
2023-01-17T16:12:15.129Z,3.80
2023-01-17T16:14:59.553Z,4.82
2023-01-17T16:17:31.789Z,5.28
2023-01-17T16:19:58.964Z,4.57
2023-01-17T16:22:26.915Z,4.38
2023-01-17T16:24:56.945Z,4.32
2023-01-17T16:27:24.089Z,4.22
2023-01-17T16:29:51.235Z,4.20
2023-01-17T16:32:18.466Z,4.65
2023-01-17T16:34:45.743Z,4.53
2023-01-17T16:37:12.896Z,4.00
2023-01-17T16:39:40.091Z,4.30
2023-01-17T16:42:07.243Z,4.00
2023-01-17T16:44:34.457Z,3.47
2023-01-17T16:47:02.001Z,4.10
2023-01-17T16:49:32.363Z,4.00
2023-01-17T16:51:59.715Z,3.42
2023-01-17T16:54:27.132Z,4.25
2023-01-17T16:56:54.297Z,4.88
2023-01-17T16:59:21.480Z,4.78
2023-01-17T17:01:50.416Z,4.35
2023-01-17T17:04:17.666Z,4.63
2023-01-17T17:06:44.843Z,4.60
2023-01-17T17:09:11.979Z,6.68
2023-01-17T17:11:39.106Z,3.83
2023-01-17T17:14:06.247Z,4.32
2023-01-17T17:16:33.992Z,4.85
2023-01-17T17:19:02.166Z,4.65
2023-01-17T17:21:29.934Z,4.60
2023-01-17T17:23:58.099Z,3.58
2023-01-17T17:26:26.859Z,3.78
2023-01-17T17:28:54.876Z,4.07
2023-01-17T17:31:22.201Z,3.72
2023-01-17T17:33:49.555Z,3.45
2023-01-17T17:36:17.525Z,4.03
2023-01-17T17:38:51.105Z,3.65
2023-01-17T17:41:19.973Z,4.07
2023-01-17T17:43:47.153Z,4.40
2023-01-17T17:46:14.656Z,4.90
2023-01-17T17:48:41.808Z,4.65
2023-01-17T17:51:21.153Z,2.97
2023-01-17T17:53:48.313Z,3.72
2023-01-17T17:56:15.532Z,3.58
2023-01-17T17:58:44.287Z,3.45
2023-01-17T18:01:13.273Z,3.53
2023-01-17T18:03:40.564Z,3.45
2023-01-17T18:06:11.923Z,3.22
2023-01-17T18:08:39.544Z,3.10
2023-01-17T18:11:09.072Z,2.80
2023-01-17T18:13:36.199Z,3.03
2023-01-17T18:16:13.667Z,3.85
2023-01-17T18:18:41.986Z,5.07
2023-01-17T18:21:14.331Z,3.45
2023-01-17T18:23:42.560Z,2.55
2023-01-17T18:26:23.334Z,3.67
2023-01-17T18:28:51.727Z,3.20
2023-01-17T18:31:18.905Z,4.63
2023-01-17T18:33:46.040Z,3.80
2023-01-17T18:36:13.935Z,5.22
2023-01-17T18:38:42.505Z,4.60
2023-01-17T18:41:10.813Z,4.30
2023-01-17T18:43:38.089Z,5.05
2023-01-17T18:46:05.862Z,5.47
2023-01-17T18:48:33.112Z,5.75
2023-01-17T18:51:06.370Z,6.80
2023-01-17T18:53:34.595Z,5.80
2023-01-17T18:56:03.103Z,6.05
2023-01-17T18:58:34.190Z,8.55
2023-01-17T19:01:09.133Z,5.43
2023-01-17T19:03:36.351Z,5.90
2023-01-17T19:06:04.359Z,4.35
2023-01-17T19:08:32.319Z,4.85
2023-01-17T19:10:59.806Z,4.38
2023-01-17T19:13:27.017Z,3.72
2023-01-17T19:15:54.193Z,4.22
2023-01-17T19:18:21.459Z,4.40
2023-01-17T19:20:48.622Z,5.93
2023-01-17T19:23:15.713Z,4.40
2023-01-17T19:25:42.975Z,5.20
2023-01-17T19:28:10.273Z,5.53
2023-01-17T19:30:40.003Z,4.95
2023-01-17T19:33:07.164Z,3.70
2023-01-17T19:35:37.478Z,3.55
2023-01-17T19:38:05.021Z,3.40
2023-01-17T19:40:32.253Z,4.18
2023-01-17T19:42:59.400Z,4.65
2023-01-17T19:45:26.649Z,5.13
2023-01-17T19:47:54.030Z,6.30
2023-01-17T19:50:21.729Z,5.32
2023-01-17T19:52:48.887Z,6.93
2023-01-17T19:55:16.075Z,5.53
2023-01-17T19:57:43.189Z,5.10
2023-01-17T20:00:13.195Z,4.45
2023-01-17T20:02:40.755Z,4.88
2023-01-17T20:05:08.021Z,4.13
2023-01-17T20:07:35.296Z,4.00
2023-01-17T20:10:03.479Z,4.82
2023-01-17T20:12:31.220Z,5.75
2023-01-17T20:14:58.433Z,4.63
2023-01-17T20:17:25.647Z,5.03
2023-01-17T20:19:52.781Z,5.05
2023-01-17T20:22:21.484Z,4.70
2023-01-17T20:24:48.724Z,4.63
2023-01-17T20:27:17.553Z,5.53
2023-01-17T20:29:44.717Z,5.60
2023-01-17T20:32:12.047Z,5.38
2023-01-17T20:34:39.139Z,5.07
2023-01-17T20:37:08.627Z,4.22
2023-01-17T20:39:38.882Z,3.63
2023-01-17T20:42:06.533Z,4.05
2023-01-17T20:44:34.403Z,3.90
2023-01-17T20:47:01.574Z,4.55
2023-01-17T20:49:28.702Z,4.03
2023-01-17T20:51:56.128Z,4.47
2023-01-17T20:54:23.516Z,4.15
2023-01-17T20:56:51.373Z,5.00
2023-01-17T20:59:19.869Z,4.43
2023-01-17T21:01:47.466Z,4.43
2023-01-17T21:04:14.999Z,4.47
2023-01-17T21:06:43.032Z,5.53
2023-01-17T21:09:14.733Z,4.68
2023-01-17T21:11:42.174Z,5.20
2023-01-17T21:14:09.423Z,5.13
2023-01-17T21:16:36.723Z,4.82
2023-01-17T21:19:04.141Z,4.93
2023-01-17T21:21:31.330Z,5.18
2023-01-17T21:23:59.425Z,5.20
2023-01-17T21:26:27.884Z,5.68
2023-01-17T21:28:55.274Z,5.80
2023-01-17T21:31:27.125Z,5.25
2023-01-17T21:33:54.347Z,5.47
2023-01-17T21:36:23.095Z,5.15
2023-01-17T21:38:57.490Z,4.47
2023-01-17T21:41:28.941Z,4.65
2023-01-17T21:44:03.388Z,4.60
2023-01-17T21:46:30.913Z,4.88
2023-01-17T21:48:58.162Z,4.63
2023-01-17T21:51:45.610Z,5.25
2023-01-17T21:54:12.857Z,4.47
2023-01-17T21:56:58.711Z,4.68
2023-01-17T21:59:25.894Z,4.68
2023-01-17T22:01:53.155Z,4.85
2023-01-17T22:04:20.388Z,5.43
2023-01-17T22:06:47.577Z,4.70
2023-01-17T22:09:15.089Z,5.03
2023-01-17T22:11:42.276Z,5.85
2023-01-17T22:14:09.513Z,5.65
2023-01-17T22:16:36.743Z,4.57
2023-01-17T22:19:04.351Z,5.90
2023-01-17T22:21:31.526Z,6.15
2023-01-17T22:23:59.954Z,6.75
2023-01-17T22:26:28.907Z,7.43
2023-01-17T22:28:56.316Z,5.75
2023-01-17T22:31:24.654Z,7.15
2023-01-17T22:33:57.984Z,8.15
2023-01-17T22:36:25.373Z,6.20
2023-01-17T22:38:53.135Z,6.15
2023-01-17T22:41:22.124Z,5.63
2023-01-17T22:43:50.386Z,49.33
2023-01-17T22:46:19.091Z,15.60
2023-01-17T22:48:46.547Z,6.88
2023-01-17T22:51:15.070Z,6.47
2023-01-17T22:53:49.962Z,5.05
2023-01-17T22:56:21.467Z,5.90
2023-01-17T22:58:49.121Z,7.28
2023-01-17T23:01:20.716Z,7.60
2023-01-17T23:03:52.252Z,7.97
2023-01-17T23:06:45.837Z,7.37
2023-01-17T23:09:14.302Z,8.57
2023-01-17T23:11:44.648Z,7.28
2023-01-17T23:14:14.854Z,8.18
2023-01-17T23:17:09.848Z,7.75
2023-01-17T23:19:38.320Z,8.43
2023-01-17T23:22:16.212Z,9.25
2023-01-17T23:24:44.539Z,7.90
2023-01-17T23:27:31.592Z,8.35
2023-01-17T23:29:58.864Z,8.38
2023-01-17T23:32:26.635Z,8.40
2023-01-17T23:34:53.851Z,8.40
2023-01-17T23:37:20.965Z,8.88
2023-01-17T23:39:48.168Z,8.85
2023-01-17T23:42:34.554Z,8.60
2023-01-17T23:45:01.765Z,8.75
2023-01-17T23:47:28.932Z,8.63
2023-01-17T23:49:56.291Z,8.30
2023-01-17T23:52:23.495Z,8.13
2023-01-17T23:54:51.437Z,8.20
2023-01-17T23:57:18.612Z,8.98
2023-01-17T23:59:45.770Z,9.70
